CheckWX is a tool to help pilots better visualize weather data.  It is not intended as a substitute for an official pre-flight weather briefing.

15:59:39 UTC

KJYR METAR
York Municipal Airport
York, Nebraska, USA
Current

25 mins ago

KJYR 261535Z AUTO 12014KT 10SM CLR 20/14 A3009 RMK AO2
Observed
May-26 @ 15:35 UTC
Wind
  • 120° at 14 KTS
Visibility
10 SM
Flight Rules
VFR
Cloud Levels
  • Clear skies
Temperature
20°C / 68°F
Dewpoint
14°C / 57°F
Humidity
69%
Altimeter
30.09" Hg
Pressure
1018.92 hPa
Previous

45 mins ago

KJYR 261515Z AUTO 12012G16KT 10SM CLR 20/14 A3008 RMK AO2
Observed
May-26 @ 15:15 UTC
Wind
  • 120° at 12 KTS
  • Gusting to 16 KTS
Visibility
10 SM
Flight Rules
VFR
Cloud Levels
  • Clear skies
Temperature
20°C / 68°F
Dewpoint
14°C / 57°F
Humidity
69%
Altimeter
30.08" Hg
Pressure
1018.62 hPa
Previous

1 hour ago

KJYR 261455Z AUTO 13013KT 10SM CLR 19/13 A3008 RMK AO2
Observed
May-26 @ 14:55 UTC
Wind
  • 130° at 13 KTS
Visibility
10 SM
Flight Rules
VFR
Cloud Levels
  • Clear skies
Temperature
19°C / 66°F
Dewpoint
13°C / 55°F
Humidity
68%
Altimeter
30.08" Hg
Pressure
1018.62 hPa